Time;durP1;ratioP1;P1;durP2;ratioP2;P2;SDS_P1;SDS_P2;PMS_P1;PMS_P2;Temp;Humidity;BMP_temperature;BMP_pressure;BME280_temperature;BME280_humidity;BME280_pressure;Samples;Min_cycle;Max_cycle;Signal;HPM_P1;HPM_P2
2022/08/24 13:23:45;;;;;;;1.40;1.30;;;30.50;40.90;;;;;;5834587;23;20577;-79
2022/08/24 13:26:25;;;;;;;0.90;0.90;;;30.50;40.30;;;;;;4979020;28;20454;-83
2022/08/24 13:28:55;;;;;;;1.30;0.90;;;30.50;41.40;;;;;;4961742;28;20551;-84
2022/08/24 13:31:31;;;;;;;1.93;1.00;;;30.60;41.00;;;;;;4971982;28;20837;-83
2022/08/24 13:34:23;;;;;;;1.37;1.10;;;30.60;41.80;;;;;;4964518;28;20459;-83
2022/08/24 13:37:13;;;;;;;1.57;1.10;;;30.60;43.30;;;;;;4939156;28;21112;-82
2022/08/24 13:40:00;;;;;;;2.00;1.00;;;30.70;42.10;;;;;;4936097;29;20985;-82
2022/08/24 13:42:56;;;;;;;1.47;0.90;;;30.60;40.70;;;;;;4933013;29;20468;-83
2022/08/24 13:45:32;;;;;;;1.00;1.00;;;30.70;36.60;;;;;;4933239;29;20499;-81
2022/08/24 13:48:15;;;;;;;0.97;0.97;;;30.60;35.70;;;;;;4936450;29;20460;-82
2022/08/24 13:50:58;;;;;;;1.00;1.00;;;30.60;36.60;;;;;;4952080;29;20455;-82
2022/08/24 13:53:52;;;;;;;1.30;1.00;;;30.60;38.20;;;;;;4951963;28;20475;-83
2022/08/24 13:56:45;;;;;;;2.13;1.10;;;30.70;38.70;;;;;;4948789;28;20451;-83
2022/08/24 13:59:20;;;;;;;0.90;0.90;;;30.70;38.50;;;;;;4951775;29;20518;-83
2022/08/24 14:02:05;;;;;;;1.33;0.90;;;30.60;38.60;;;;;;4958936;29;20455;-82
2022/08/24 14:04:54;;;;;;;1.70;0.90;;;30.60;38.00;;;;;;4958322;28;20487;-83
2022/08/24 14:07:26;;;;;;;1.20;1.10;;;30.70;40.50;;;;;;4957342;29;20470;-83
2022/08/24 14:10:06;;;;;;;1.37;1.20;;;30.80;39.70;;;;;;4958784;28;20454;-83
2022/08/24 14:12:56;;;;;;;1.40;1.00;;;30.80;37.50;;;;;;4957705;28;20463;-84
2022/08/24 14:15:34;;;;;;;1.47;1.10;;;30.80;38.20;;;;;;4958000;28;20483;-83
2022/08/24 14:18:09;;;;;;;1.20;1.10;;;30.80;38.70;;;;;;4957846;29;20510;-82
2022/08/24 14:21:07;;;;;;;0.80;0.80;;;30.80;38.30;;;;;;4958556;29;20458;-83
2022/08/24 14:23:51;;;;;;;1.10;1.10;;;30.80;38.40;;;;;;4937335;29;20488;-83
2022/08/24 14:27:05;;;;;;;0.90;0.90;;;30.80;38.70;;;;;;4941985;29;20562;-83
2022/08/24 14:29:44;;;;;;;1.00;0.90;;;30.80;37.10;;;;;;4956949;28;20723;-83
2022/08/24 14:32:43;;;;;;;0.80;0.80;;;30.80;35.60;;;;;;4957692;28;20471;-84
2022/08/24 14:35:34;;;;;;;1.00;1.00;;;30.80;36.20;;;;;;4958054;28;20480;-83
2022/08/24 14:38:26;;;;;;;1.07;0.97;;;30.80;38.20;;;;;;4943339;28;20511;-82
2022/08/24 14:41:19;;;;;;;0.90;0.90;;;30.80;36.90;;;;;;4939156;29;21096;-84
2022/08/24 14:44:05;;;;;;;0.80;0.80;;;30.80;37.40;;;;;;4939450;29;21026;-83
2022/08/24 14:46:43;;;;;;;1.70;1.00;;;30.80;35.70;;;;;;4953525;28;20510;-82
2022/08/24 14:49:18;;;;;;;1.20;1.10;;;30.80;37.00;;;;;;4950955;28;20799;-83
2022/08/24 14:52:09;;;;;;;1.27;1.00;;;30.80;36.60;;;;;;4957799;28;20467;-83
2022/08/24 14:54:47;;;;;;;0.97;0.97;;;30.80;37.00;;;;;;4957038;28;20483;-81
2022/08/24 14:57:31;;;;;;;0.97;0.93;;;30.80;38.50;;;;;;4958872;29;20976;-83
2022/08/24 15:00:09;;;;;;;2.73;1.20;;;30.90;37.00;;;;;;4958760;29;20451;-83
2022/08/24 15:03:10;;;;;;;1.10;1.00;;;30.80;33.80;;;;;;4958473;28;20460;-82
2022/08/24 15:06:02;;;;;;;1.10;1.00;;;30.80;35.50;;;;;;4940138;29;20480;-83
2022/08/24 15:08:52;;;;;;;0.80;0.80;;;30.80;34.20;;;;;;4939114;29;20516;-83
2022/08/24 15:11:25;;;;;;;0.80;0.80;;;30.80;35.90;;;;;;4947885;28;20441;-83
2022/08/24 15:13:57;;;;;;;0.83;0.83;;;30.80;37.50;;;;;;4954701;28;20479;-83
2022/08/24 15:16:33;;;;;;;0.90;0.90;;;30.80;36.40;;;;;;4955733;29;20807;-83
2022/08/24 15:19:08;;;;;;;1.13;1.13;;;30.80;37.80;;;;;;4955224;29;20471;-82
2022/08/24 15:21:48;;;;;;;1.00;1.00;;;30.80;39.50;;;;;;4954122;29;20463;-83
2022/08/24 15:24:28;;;;;;;1.20;1.10;;;30.80;38.10;;;;;;4940940;29;21018;-83
2022/08/24 15:27:06;;;;;;;0.97;0.90;;;30.70;37.30;;;;;;4955108;29;20458;-83
2022/08/24 15:29:45;;;;;;;1.13;0.80;;;30.80;37.70;;;;;;4954279;29;20448;-83
2022/08/24 15:32:14;;;;;;;1.10;1.00;;;30.70;39.10;;;;;;4954774;29;20483;-83
2022/08/24 15:34:47;;;;;;;1.63;0.97;;;30.70;39.30;;;;;;4954927;28;20484;-82
2022/08/24 15:37:24;;;;;;;0.90;0.90;;;30.70;38.30;;;;;;4949659;29;20471;-83
2022/08/24 15:39:53;;;;;;;1.10;1.10;;;30.70;37.70;;;;;;4955328;29;20456;-83
2022/08/24 15:42:21;;;;;;;1.40;0.97;;;30.60;40.10;;;;;;4953196;29;20468;-82
2022/08/24 15:44:50;;;;;;;1.00;1.00;;;30.60;40.10;;;;;;4954433;28;20491;-83
2022/08/24 15:47:24;;;;;;;1.27;1.17;;;30.60;39.50;;;;;;4954154;29;20530;-82
2022/08/24 15:49:57;;;;;;;1.03;1.03;;;30.70;39.20;;;;;;4954031;29;20521;-82
2022/08/24 15:52:42;;;;;;;1.43;1.33;;;30.70;41.00;;;;;;4954273;28;20464;-83
2022/08/24 15:55:27;;;;;;;2.00;1.70;;;30.60;40.50;;;;;;4950207;28;20476;-82
2022/08/24 15:57:56;;;;;;;1.20;1.10;;;30.60;40.20;;;;;;4947430;29;20756;-82
2022/08/24 16:03:24;;;;;;;1.00;1.00;;;30.60;41.40;;;;;;4953304;28;20459;-83
2022/08/24 16:05:56;;;;;;;1.30;1.20;;;30.60;42.00;;;;;;4953456;29;20535;-82
2022/08/24 16:08:24;;;;;;;1.40;1.30;;;30.60;42.40;;;;;;4948350;29;20515;-83
2022/08/24 16:10:55;;;;;;;1.37;1.23;;;30.60;59.80;;;;;;4941656;28;20456;-83
2022/08/24 16:13:29;;;;;;;1.87;1.30;;;30.50;42.50;;;;;;4950723;28;20452;-83
2022/08/24 16:16:02;;;;;;;1.10;1.00;;;30.60;43.10;;;;;;4953415;29;20456;-83
2022/08/24 16:18:48;;;;;;;1.20;1.10;;;30.60;43.60;;;;;;4953502;29;20460;-83
2022/08/24 16:21:23;;;;;;;1.43;1.33;;;30.50;43.50;;;;;;4953510;28;20471;-83
2022/08/24 16:23:58;;;;;;;1.30;1.20;;;30.50;58.70;;;;;;4952069;28;20504;-83
2022/08/24 16:26:49;;;;;;;1.10;1.00;;;30.50;48.20;;;;;;4953118;28;21368;-82
2022/08/24 16:29:43;;;;;;;1.53;1.30;;;30.40;44.50;;;;;;4951357;28;20444;-83
2022/08/24 16:32:14;;;;;;;1.20;1.20;;;30.40;43.50;;;;;;4945582;29;20529;-82
2022/08/24 16:34:52;;;;;;;1.40;1.20;;;30.40;45.30;;;;;;4953032;28;20459;-82
2022/08/24 16:37:23;;;;;;;1.33;1.23;;;30.40;45.00;;;;;;4939032;28;20451;-82
2022/08/24 16:39:52;;;;;;;1.43;1.20;;;30.30;44.10;;;;;;4934178;29;20528;-82
2022/08/24 16:42:26;;;;;;;1.70;1.60;;;30.30;46.70;;;;;;4949393;29;20451;-83
2022/08/24 16:44:56;;;;;;;1.27;1.10;;;30.30;45.00;;;;;;4952660;28;20523;-83
2022/08/24 16:47:25;;;;;;;1.40;1.30;;;30.30;45.00;;;;;;4953081;28;20550;-82
2022/08/24 16:49:53;;;;;;;1.20;1.17;;;30.20;44.70;;;;;;4953298;28;20531;-83
2022/08/24 16:52:23;;;;;;;1.40;1.30;;;30.20;46.60;;;;;;4936994;28;20499;-83
2022/08/24 16:54:51;;;;;;;1.40;1.30;;;30.20;47.20;;;;;;4933222;29;20480;-83
2022/08/24 16:57:22;;;;;;;1.20;1.10;;;30.20;61.70;;;;;;4949744;29;20471;-82
2022/08/24 16:59:52;;;;;;;1.27;1.17;;;30.20;44.20;;;;;;4952301;29;20468;-82
2022/08/24 17:02:21;;;;;;;1.63;1.50;;;30.10;45.00;;;;;;4951791;28;20470;-82
2022/08/24 17:04:49;;;;;;;1.50;1.40;;;30.10;45.30;;;;;;4932878;29;20468;-83
2022/08/24 17:07:23;;;;;;;1.40;1.30;;;30.10;47.10;;;;;;4950425;29;20459;-83
2022/08/24 17:09:51;;;;;;;1.30;1.20;;;30.10;46.30;;;;;;4952650;28;20463;-83
2022/08/24 17:12:20;;;;;;;1.47;1.37;;;30.10;45.60;;;;;;4940987;29;20452;-83
2022/08/24 17:14:48;;;;;;;1.40;1.30;;;30.10;46.40;;;;;;4951819;28;20507;-82
2022/08/24 17:17:20;;;;;;;1.57;1.27;;;30.00;45.80;;;;;;4952099;28;20568;-83
2022/08/24 17:19:49;;;;;;;1.47;1.37;;;30.00;44.50;;;;;;4946837;28;20987;-82
2022/08/24 17:22:18;;;;;;;1.80;1.10;;;29.90;45.30;;;;;;4933309;29;20890;-82
2022/08/24 17:24:47;;;;;;;1.80;1.37;;;29.90;46.10;;;;;;4930830;29;21201;-83
2022/08/24 17:27:17;;;;;;;1.27;1.17;;;29.90;45.90;;;;;;4944771;29;20490;-83
2022/08/24 17:29:45;;;;;;;2.03;1.50;;;29.80;46.30;;;;;;4952053;28;20829;-82
2022/08/24 17:32:15;;;;;;;1.30;1.20;;;29.80;44.70;;;;;;4951898;28;20479;-82
2022/08/24 17:34:43;;;;;;;2.50;1.30;;;29.80;48.20;;;;;;4953405;28;20490;-81
2022/08/24 17:37:11;;;;;;;2.30;1.43;;;29.70;48.90;;;;;;4952319;29;20467;-83
2022/08/24 17:39:40;;;;;;;1.20;1.10;;;29.80;50.10;;;;;;4953320;29;20936;-83
2022/08/24 17:42:10;;;;;;;1.20;1.10;;;29.80;50.00;;;;;;4952634;29;21025;-81
2022/08/24 17:44:58;;;;;;;1.30;1.20;;;29.70;47.70;;;;;;4952183;28;20884;-81
2022/08/24 17:47:27;;;;;;;1.20;1.10;;;29.70;62.40;;;;;;4952069;29;20475;-81
2022/08/24 17:49:55;;;;;;;1.67;1.30;;;29.70;47.20;;;;;;4951732;29;20467;-81
2022/08/24 17:52:24;;;;;;;1.73;1.30;;;29.60;48.50;;;;;;4951952;29;20467;-82
2022/08/24 17:54:53;;;;;;;1.50;1.20;;;29.60;48.90;;;;;;4950455;29;21090;-81
2022/08/24 17:57:25;;;;;;;1.10;1.10;;;29.60;45.40;;;;;;4951755;29;20467;-81
2022/08/24 17:59:54;;;;;;;1.20;1.20;;;29.50;46.40;;;;;;4951629;28;20463;-81
2022/08/24 18:02:22;;;;;;;1.30;1.20;;;29.60;48.70;;;;;;4951466;29;20460;-81
2022/08/24 18:04:51;;;;;;;1.47;1.20;;;29.50;48.50;;;;;;4947679;28;20566;-80
2022/08/24 18:07:22;;;;;;;1.73;1.47;;;29.50;49.20;;;;;;4945119;29;20472;-81
2022/08/24 18:10:10;;;;;;;1.03;1.00;;;29.50;47.00;;;;;;4951193;28;20471;-82
2022/08/24 18:12:40;;;;;;;2.03;1.80;;;29.50;46.70;;;;;;4942772;29;20451;-81
2022/08/24 18:15:09;;;;;;;1.50;1.40;;;29.50;48.50;;;;;;4951359;28;20472;-81
2022/08/24 18:17:40;;;;;;;1.40;1.13;;;29.40;46.50;;;;;;4951084;29;20445;-81
2022/08/24 18:20:11;;;;;;;1.87;1.33;;;29.30;47.00;;;;;;4951398;28;20900;-81
2022/08/24 18:22:43;;;;;;;1.53;1.33;;;29.30;46.30;;;;;;4949545;29;20466;-81
2022/08/24 18:25:12;;;;;;;2.10;1.40;;;29.30;48.40;;;;;;4950772;28;20511;-82
2022/08/24 18:27:43;;;;;;;1.80;1.70;;;29.30;47.10;;;;;;4950583;28;20483;-81
2022/08/24 18:30:18;;;;;;;1.70;1.47;;;29.30;47.20;;;;;;4951081;28;20920;-82
2022/08/24 18:32:49;;;;;;;1.63;1.30;;;29.20;55.70;;;;;;4951444;29;21224;-81
2022/08/24 18:35:17;;;;;;;1.37;1.27;;;29.20;49.50;;;;;;4944355;28;20473;-81
2022/08/24 18:37:45;;;;;;;1.40;1.30;;;29.20;48.60;;;;;;4931846;29;20469;-81
2022/08/24 18:40:15;;;;;;;1.50;1.40;;;29.20;48.60;;;;;;4939015;29;20459;-81
2022/08/24 18:42:50;;;;;;;1.20;1.10;;;29.10;47.50;;;;;;4952097;28;20566;-81
2022/08/24 18:45:19;;;;;;;1.40;1.30;;;29.10;49.70;;;;;;4946699;28;20479;-81
2022/08/24 18:47:47;;;;;;;1.30;1.20;;;29.10;48.20;;;;;;4935776;29;20480;-82
2022/08/24 18:50:20;;;;;;;1.40;1.30;;;29.10;47.30;;;;;;4943568;29;20460;-81
2022/08/24 18:52:49;;;;;;;1.77;1.23;;;29.00;48.80;;;;;;4954286;29;20467;-81
2022/08/24 18:55:17;;;;;;;1.43;1.33;;;29.00;48.70;;;;;;4954482;28;21059;-81
2022/08/24 18:57:45;;;;;;;1.60;1.50;;;29.00;50.70;;;;;;4955204;28;20510;-82
2022/08/24 19:00:16;;;;;;;1.87;1.30;;;29.00;49.20;;;;;;4955071;29;20448;-81
2022/08/24 19:02:44;;;;;;;1.40;1.30;;;28.90;48.00;;;;;;4944915;28;20983;-82
2022/08/24 19:05:17;;;;;;;1.40;1.20;;;28.90;49.80;;;;;;4951869;28;20476;-81
2022/08/24 19:07:47;;;;;;;1.50;1.40;;;28.90;48.60;;;;;;4952472;29;20474;-82
2022/08/24 19:10:17;;;;;;;1.60;1.50;;;28.90;48.20;;;;;;4952470;29;20526;-80
2022/08/24 19:12:48;;;;;;;3.27;1.33;;;28.80;48.40;;;;;;4954076;29;20460;-82
2022/08/24 19:15:18;;;;;;;1.47;1.37;;;28.80;48.50;;;;;;4953913;28;20488;-81
2022/08/24 19:18:08;;;;;;;1.33;1.23;;;28.80;49.20;;;;;;4954475;28;20466;-81
2022/08/24 19:20:38;;;;;;;2.50;1.30;;;28.80;49.50;;;;;;4935004;29;20453;-82
2022/08/24 19:23:17;;;;;;;1.33;1.23;;;28.70;49.00;;;;;;4934020;29;20829;-80
2022/08/24 19:25:46;;;;;;;1.57;1.40;;;28.70;49.40;;;;;;4934652;29;20468;-81
2022/08/24 19:28:14;;;;;;;1.40;1.30;;;28.70;50.00;;;;;;4954009;28;20480;-82
2022/08/24 19:30:45;;;;;;;1.97;1.77;;;28.70;48.70;;;;;;4953833;29;20825;-81
2022/08/24 19:33:17;;;;;;;1.43;1.33;;;28.60;49.70;;;;;;4953912;28;20507;-79
2022/08/24 19:35:45;;;;;;;1.40;1.30;;;28.70;49.60;;;;;;4949777;28;21051;-81
2022/08/24 19:38:13;;;;;;;1.40;1.30;;;28.60;52.30;;;;;;4941586;29;20449;-80
2022/08/24 19:40:44;;;;;;;1.73;1.60;;;28.60;64.90;;;;;;4953955;29;20456;-81
2022/08/24 19:43:16;;;;;;;1.80;1.40;;;28.50;49.20;;;;;;4953508;28;20530;-81
2022/08/24 19:46:01;;;;;;;1.30;1.20;;;28.50;50.90;;;;;;4953974;28;20990;-81
2022/08/24 19:48:30;;;;;;;1.40;1.30;;;28.50;49.80;;;;;;4953770;28;21019;-81
2022/08/24 19:51:01;;;;;;;3.30;1.20;;;28.50;49.20;;;;;;4949594;28;20457;-81
2022/08/24 19:53:31;;;;;;;2.47;1.67;;;28.50;48.70;;;;;;4934544;29;20468;-81
2022/08/24 19:56:00;;;;;;;1.63;1.37;;;28.40;49.40;;;;;;4939474;29;20472;-81
2022/08/24 19:58:31;;;;;;;1.40;1.30;;;28.40;50.00;;;;;;4953402;28;20452;-81
2022/08/24 20:01:04;;;;;;;1.77;1.57;;;28.40;49.30;;;;;;4951888;29;20486;-80
2022/08/24 20:03:32;;;;;;;2.00;1.23;;;28.30;48.80;;;;;;4941011;28;20500;-82
2022/08/24 20:06:00;;;;;;;1.40;1.30;;;28.30;50.60;;;;;;4952787;29;20448;-81
2022/08/24 20:08:28;;;;;;;1.30;1.20;;;28.30;50.50;;;;;;4952691;28;20895;-81
2022/08/24 20:10:59;;;;;;;1.30;1.20;;;28.30;49.90;;;;;;4952926;29;20460;-81
2022/08/24 20:13:27;;;;;;;2.17;1.30;;;28.30;49.80;;;;;;4952747;28;20494;-82
2022/08/24 20:15:57;;;;;;;1.73;1.30;;;28.30;49.80;;;;;;4953034;29;21018;-82
2022/08/24 20:18:30;;;;;;;2.10;1.20;;;28.20;48.90;;;;;;4952916;29;20486;-81
2022/08/24 20:20:59;;;;;;;1.50;1.40;;;28.20;48.50;;;;;;4953241;29;20910;-81
2022/08/24 20:23:29;;;;;;;1.40;1.30;;;28.20;50.00;;;;;;4952085;28;20511;-81
2022/08/24 20:25:59;;;;;;;1.50;1.40;;;28.20;50.30;;;;;;4952631;28;20894;-81
2022/08/24 20:28:32;;;;;;;1.43;1.33;;;28.10;48.20;;;;;;4949478;28;20574;-82
2022/08/24 20:31:05;;;;;;;1.30;1.20;;;28.10;49.30;;;;;;4951207;28;20471;-81
2022/08/24 20:33:35;;;;;;;1.53;1.23;;;28.10;48.90;;;;;;4959852;28;20516;-81
2022/08/24 20:36:04;;;;;;;1.47;1.37;;;28.10;50.00;;;;;;4934088;29;20473;-82
2022/08/24 20:38:35;;;;;;;1.50;1.40;;;28.10;49.70;;;;;;4937653;29;20542;-82
2022/08/24 20:41:04;;;;;;;1.43;1.30;;;28.10;49.90;;;;;;4951749;29;20448;-81
2022/08/24 20:43:32;;;;;;;1.50;1.40;;;28.00;50.60;;;;;;4949523;28;20448;-80
2022/08/24 20:46:00;;;;;;;1.47;1.37;;;28.00;50.40;;;;;;4944936;29;20452;-81
2022/08/24 20:48:31;;;;;;;2.90;1.43;;;28.00;51.00;;;;;;4952480;28;20567;-81
2022/08/24 20:51:01;;;;;;;2.70;1.40;;;28.00;48.90;;;;;;4953021;29;20463;-81
2022/08/24 20:53:29;;;;;;;1.60;1.30;;;28.00;51.00;;;;;;4951154;28;21037;-81
2022/08/24 20:56:01;;;;;;;1.57;1.47;;;28.00;50.60;;;;;;4952543;29;20465;-80
2022/08/24 20:58:29;;;;;;;1.20;1.10;;;27.90;48.30;;;;;;4952908;28;20456;-81
2022/08/24 21:00:57;;;;;;;2.90;2.77;;;27.90;49.40;;;;;;4948091;29;20472;-81
2022/08/24 21:03:25;;;;;;;1.53;1.43;;;27.80;49.60;;;;;;4952167;28;20456;-81
2022/08/24 21:05:54;;;;;;;1.43;1.33;;;27.80;49.60;;;;;;4950185;28;20456;-81
2022/08/24 21:08:24;;;;;;;1.33;1.23;;;27.80;49.80;;;;;;4952542;28;20511;-82
2022/08/24 21:10:53;;;;;;;1.57;1.30;;;27.80;49.30;;;;;;4952630;29;20458;-81
2022/08/24 21:13:21;;;;;;;1.40;1.30;;;27.70;48.70;;;;;;4952180;28;20494;-81
2022/08/24 21:15:51;;;;;;;1.80;1.70;;;27.70;49.30;;;;;;4952227;28;20999;-81
2022/08/24 21:18:19;;;;;;;1.57;1.37;;;27.70;50.80;;;;;;4952134;29;20447;-81
2022/08/24 21:20:47;;;;;;;1.60;1.50;;;27.70;48.10;;;;;;4953053;29;20531;-81
2022/08/24 21:23:34;;;;;;;1.57;1.10;;;27.60;48.70;;;;;;4931902;29;20464;-82
2022/08/24 21:26:03;;;;;;;1.50;1.40;;;27.60;48.30;;;;;;4947675;28;20477;-80
2022/08/24 21:28:31;;;;;;;1.40;1.30;;;27.90;46.80;;;;;;4952237;29;20484;-81
2022/08/24 21:31:00;;;;;;;1.70;1.23;;;27.50;46.20;;;;;;4952527;29;20982;-81
2022/08/24 21:36:22;;;;;;;1.40;1.30;;;27.50;46.70;;;;;;4939999;28;20460;-81
2022/08/24 21:38:52;;;;;;;3.93;1.60;;;27.50;44.30;;;;;;4952317;29;20470;-81
2022/08/24 21:41:21;;;;;;;1.30;1.20;;;27.40;45.30;;;;;;4952193;29;20466;-81
2022/08/24 21:43:50;;;;;;;4.20;1.30;;;27.50;45.80;;;;;;4951836;28;20484;-81
2022/08/24 21:46:18;;;;;;;1.40;1.20;;;27.50;47.10;;;;;;4951705;29;20471;-81
2022/08/24 21:48:46;;;;;;;1.40;1.30;;;27.40;46.50;;;;;;4951574;28;20522;-81
2022/08/24 21:51:14;;;;;;;1.40;1.30;;;27.30;45.30;;;;;;4951707;28;20467;-81
2022/08/24 21:53:43;;;;;;;1.30;1.20;;;27.30;45.40;;;;;;4944809;28;20495;-81
2022/08/24 21:56:13;;;;;;;1.47;1.37;;;27.30;46.10;;;;;;4952028;28;20459;-81
2022/08/24 21:58:41;;;;;;;1.37;1.20;;;27.30;47.80;;;;;;4946899;28;20456;-81
2022/08/24 22:01:09;;;;;;;1.30;1.20;;;27.30;46.10;;;;;;4939945;28;20471;-81
2022/08/24 22:03:38;;;;;;;1.30;1.20;;;27.30;46.30;;;;;;4946576;29;20504;-81
2022/08/24 22:06:08;;;;;;;1.30;1.20;;;27.30;46.50;;;;;;4964125;28;20460;-81
2022/08/24 22:08:37;;;;;;;1.20;1.10;;;27.30;44.60;;;;;;4951002;29;20507;-81
2022/08/24 22:11:05;;;;;;;1.43;1.30;;;27.20;44.60;;;;;;4939377;29;20473;-81
2022/08/24 22:13:35;;;;;;;1.47;1.37;;;27.20;45.50;;;;;;4937852;28;20464;-81
2022/08/24 22:16:05;;;;;;;1.43;1.33;;;27.20;45.70;;;;;;4951884;28;20472;-81
2022/08/24 22:18:34;;;;;;;1.57;1.47;;;27.20;45.60;;;;;;4954937;28;20451;-81
2022/08/24 22:21:06;;;;;;;1.53;1.43;;;27.20;44.60;;;;;;4955287;29;20514;-80
2022/08/24 22:23:35;;;;;;;1.27;1.13;;;27.20;44.30;;;;;;4954070;28;20510;-81
2022/08/24 22:26:04;;;;;;;1.73;1.40;;;27.20;46.00;;;;;;4948351;28;20953;-81
2022/08/24 22:28:34;;;;;;;1.30;1.17;;;27.10;45.00;;;;;;4936161;29;20492;-81
2022/08/24 22:31:02;;;;;;;1.70;1.57;;;27.00;45.40;;;;;;4950614;29;20447;-81
2022/08/24 22:33:31;;;;;;;1.37;1.20;;;27.10;46.20;;;;;;4954957;28;20530;-81
2022/08/24 22:35:59;;;;;;;1.40;1.30;;;27.00;46.40;;;;;;4955306;29;20843;-81
2022/08/24 22:38:27;;;;;;;1.50;1.40;;;27.00;47.10;;;;;;4955570;29;20476;-81
2022/08/24 22:40:55;;;;;;;3.33;1.33;;;27.00;47.60;;;;;;4953960;29;20456;-80
2022/08/24 22:44:17;;;;;;;1.60;1.50;;;26.90;46.00;;;;;;4945276;29;20461;-81
2022/08/24 22:46:13;;;;;;;3.30;1.40;;;26.90;49.10;;;;;;4953941;28;20468;-81
2022/08/24 22:48:41;;;;;;;1.60;1.30;;;27.00;47.00;;;;;;4954612;29;20558;-82
2022/08/24 22:51:11;;;;;;;1.43;1.33;;;27.00;47.80;;;;;;4953835;29;20464;-81
2022/08/24 22:53:40;;;;;;;1.67;1.57;;;26.90;45.70;;;;;;4954921;28;20480;-81
2022/08/24 22:56:14;;;;;;;1.50;1.40;;;26.90;46.60;;;;;;4954758;29;20448;-81
2022/08/24 22:58:43;;;;;;;1.40;1.30;;;26.90;45.90;;;;;;4949850;29;20471;-81
2022/08/24 23:01:19;;;;;;;1.60;1.47;;;26.90;47.90;;;;;;4938870;28;20461;-81
2022/08/24 23:03:48;;;;;;;1.60;1.50;;;26.90;45.90;;;;;;4950433;28;20479;-81
2022/08/24 23:06:17;;;;;;;1.83;1.73;;;26.90;46.90;;;;;;4954481;29;20456;-81
2022/08/24 23:08:46;;;;;;;1.63;1.53;;;26.80;46.30;;;;;;4954612;29;20487;-82
2022/08/24 23:11:14;;;;;;;1.80;1.70;;;26.80;48.00;;;;;;4954816;29;20523;-80
2022/08/24 23:13:43;;;;;;;2.03;1.63;;;26.80;47.10;;;;;;4954159;28;20492;-81
2022/08/24 23:16:13;;;;;;;1.50;1.30;;;26.70;50.00;;;;;;4953267;29;20464;-82
2022/08/24 23:21:30;;;;;;;1.40;1.30;;;26.80;47.70;;;;;;4943389;29;20951;-81
2022/08/24 23:23:58;;;;;;;1.90;1.80;;;26.70;47.70;;;;;;4951651;28;21011;-81
2022/08/24 23:26:27;;;;;;;1.50;1.40;;;26.70;49.90;;;;;;4954302;28;20476;-80
2022/08/24 23:28:55;;;;;;;3.33;1.20;;;26.70;47.30;;;;;;4953420;28;20497;-81
2022/08/24 23:31:23;;;;;;;1.60;1.50;;;26.70;49.50;;;;;;4954558;29;20948;-81
2022/08/24 23:33:53;;;;;;;1.50;1.40;;;26.70;49.50;;;;;;4949137;28;20549;-81
2022/08/24 23:36:24;;;;;;;1.70;1.60;;;26.70;49.40;;;;;;4935026;29;20464;-82
2022/08/24 23:38:56;;;;;;;1.40;1.30;;;26.60;47.50;;;;;;4935243;29;20527;-81
2022/08/24 23:41:27;;;;;;;2.00;1.90;;;26.60;48.20;;;;;;4947139;28;20467;-81
2022/08/24 23:43:56;;;;;;;1.50;1.40;;;26.60;48.40;;;;;;4953918;28;20916;-81
2022/08/24 23:46:24;;;;;;;1.40;1.30;;;26.60;47.80;;;;;;4953714;29;20471;-81
2022/08/24 23:48:54;;;;;;;1.57;1.20;;;26.60;50.00;;;;;;4954393;29;20492;-81
2022/08/24 23:51:25;;;;;;;1.40;1.30;;;26.60;50.60;;;;;;4952174;28;20464;-81
2022/08/24 23:53:55;;;;;;;1.80;1.70;;;26.50;48.80;;;;;;4942401;28;20492;-81
2022/08/24 23:56:27;;;;;;;1.73;1.63;;;26.40;49.10;;;;;;4954026;29;20456;-81
2022/08/24 23:59:01;;;;;;;1.47;1.37;;;26.40;47.50;;;;;;4944652;29;20462;-82
